createdAt,value
2022-12-27T00:01:12.426Z,4.00
2022-12-27T00:03:39.463Z,4.00
2022-12-27T00:06:06.894Z,4.00
2022-12-27T00:08:33.536Z,4.10
2022-12-27T00:11:04.493Z,4.10
2022-12-27T00:13:31.882Z,4.00
2022-12-27T00:16:03.027Z,4.10
2022-12-27T00:18:29.679Z,4.10
2022-12-27T00:20:57.888Z,4.10
2022-12-27T00:23:24.689Z,4.10
2022-12-27T00:25:51.413Z,4.00
2022-12-27T00:28:18.080Z,3.80
2022-12-27T00:30:44.588Z,3.80
2022-12-27T00:33:11.241Z,3.70
2022-12-27T00:35:40.869Z,3.60
2022-12-27T00:38:07.482Z,3.60
2022-12-27T00:40:35.263Z,3.60
2022-12-27T00:43:01.771Z,3.60
2022-12-27T00:45:28.327Z,3.70
2022-12-27T00:47:54.943Z,3.70
2022-12-27T00:50:21.532Z,3.70
2022-12-27T00:52:48.200Z,3.70
2022-12-27T00:55:14.797Z,3.60
2022-12-27T00:57:41.398Z,3.60
2022-12-27T01:00:10.632Z,3.60
2022-12-27T01:02:37.629Z,3.60
2022-12-27T01:05:04.343Z,3.60
2022-12-27T01:07:30.977Z,3.60
2022-12-27T01:09:57.525Z,3.60
2022-12-27T01:12:24.167Z,3.70
2022-12-27T01:14:50.732Z,3.60
2022-12-27T01:17:17.918Z,3.60
2022-12-27T01:19:44.462Z,3.60
2022-12-27T01:22:11.065Z,3.70
2022-12-27T01:24:37.662Z,3.70
2022-12-27T01:27:04.256Z,3.70
2022-12-27T01:29:30.776Z,3.80
2022-12-27T01:31:57.429Z,3.80
2022-12-27T01:34:24.027Z,3.80
2022-12-27T01:36:50.627Z,3.80
2022-12-27T01:39:17.191Z,3.80
2022-12-27T01:42:03.072Z,3.80
2022-12-27T01:44:53.248Z,3.80
2022-12-27T01:47:25.930Z,3.80
2022-12-27T01:49:52.410Z,3.90
2022-12-27T01:52:19.022Z,4.00
2022-12-27T01:54:45.864Z,4.00
2022-12-27T01:57:12.461Z,4.00
2022-12-27T01:59:39.657Z,4.10
2022-12-27T02:02:06.450Z,4.10
2022-12-27T02:04:33.367Z,4.20
2022-12-27T02:07:00.461Z,4.20
2022-12-27T02:09:26.965Z,4.30
2022-12-27T02:11:56.723Z,4.30
2022-12-27T02:14:31.229Z,4.30
2022-12-27T02:16:59.387Z,4.40
2022-12-27T02:19:41.035Z,4.40
2022-12-27T02:22:10.687Z,4.40
2022-12-27T02:24:37.250Z,4.50
2022-12-27T02:27:03.922Z,4.50
2022-12-27T02:29:49.270Z,4.40
2022-12-27T02:32:25.077Z,4.50
2022-12-27T02:35:10.647Z,4.50
2022-12-27T02:37:39.933Z,4.40
2022-12-27T02:40:28.247Z,4.40
2022-12-27T02:43:13.968Z,4.30
2022-12-27T02:46:03.426Z,4.20
2022-12-27T02:48:48.355Z,4.10
2022-12-27T02:51:43.968Z,4.00
2022-12-27T02:54:18.725Z,4.10
2022-12-27T02:57:04.017Z,4.10
2022-12-27T02:59:36.670Z,4.10
2022-12-27T03:02:33.980Z,4.30
2022-12-27T03:05:19.535Z,4.30
2022-12-27T03:07:55.756Z,4.30
2022-12-27T03:10:46.840Z,4.40
2022-12-27T03:13:37.946Z,4.60
2022-12-27T03:16:14.681Z,4.60
2022-12-27T03:18:45.979Z,4.60
2022-12-27T03:21:50.256Z,4.70
2022-12-27T03:24:43.143Z,4.70
2022-12-27T03:27:18.244Z,4.80
2022-12-27T03:30:08.541Z,4.70
2022-12-27T03:33:09.331Z,4.70
2022-12-27T03:35:41.540Z,4.80
2022-12-27T03:38:11.844Z,4.70
2022-12-27T03:41:05.975Z,4.70
2022-12-27T03:43:33.575Z,4.70
2022-12-27T03:46:34.993Z,4.70
2022-12-27T03:49:07.409Z,4.60
2022-12-27T03:51:46.593Z,4.60
2022-12-27T03:54:26.530Z,4.60
2022-12-27T03:56:57.380Z,4.70
2022-12-27T03:59:24.276Z,4.70
2022-12-27T04:01:50.930Z,4.60
2022-12-27T04:04:17.635Z,4.60
2022-12-27T04:06:44.203Z,4.60
2022-12-27T04:09:30.115Z,4.50
2022-12-27T04:12:15.786Z,4.50
2022-12-27T04:15:00.809Z,4.50
2022-12-27T04:17:45.995Z,4.50
2022-12-27T04:20:31.541Z,4.60
2022-12-27T04:23:17.205Z,4.60
2022-12-27T04:26:02.193Z,4.60
2022-12-27T04:28:47.412Z,4.60
2022-12-27T04:31:32.645Z,4.70
2022-12-27T04:34:17.708Z,4.60
2022-12-27T04:36:44.259Z,4.60
2022-12-27T04:39:10.869Z,4.60
2022-12-27T04:41:56.234Z,4.50
2022-12-27T04:44:43.354Z,4.40
2022-12-27T04:47:35.562Z,4.40
2022-12-27T04:50:21.509Z,4.50
2022-12-27T04:53:07.011Z,4.50
2022-12-27T04:55:33.852Z,4.60
2022-12-27T05:00:49.735Z,4.60
2022-12-27T05:03:18.247Z,4.70
2022-12-27T05:05:45.915Z,4.70
2022-12-27T05:08:32.631Z,4.70
2022-12-27T05:11:17.611Z,4.70
2022-12-27T05:14:02.212Z,4.70
2022-12-27T05:16:34.403Z,4.70
2022-12-27T05:19:01.004Z,4.70
2022-12-27T05:21:27.571Z,4.70
2022-12-27T05:24:12.911Z,4.60
2022-12-27T05:26:39.748Z,4.60
2022-12-27T05:29:07.017Z,4.60
2022-12-27T05:31:34.206Z,4.60
2022-12-27T05:34:00.811Z,4.60
2022-12-27T05:36:27.496Z,4.60
2022-12-27T05:38:54.048Z,4.70
2022-12-27T05:41:20.598Z,4.70
2022-12-27T05:43:47.101Z,4.80
2022-12-27T05:46:15.121Z,4.80
2022-12-27T05:48:41.875Z,4.70
2022-12-27T05:51:10.405Z,4.70
2022-12-27T05:53:37.185Z,4.70
2022-12-27T05:56:03.897Z,4.60
2022-12-27T05:58:30.603Z,4.60
2022-12-27T06:00:57.473Z,4.60
2022-12-27T06:03:24.262Z,4.60
2022-12-27T06:05:50.917Z,4.70
2022-12-27T06:08:17.476Z,4.60
2022-12-27T06:10:44.101Z,4.60
2022-12-27T06:13:10.747Z,4.50
2022-12-27T06:15:37.385Z,4.60
2022-12-27T06:18:04.068Z,4.60
2022-12-27T06:20:30.975Z,4.60
2022-12-27T06:22:58.611Z,4.60
2022-12-27T06:25:25.179Z,4.60
2022-12-27T06:27:51.688Z,4.60
2022-12-27T06:30:18.294Z,4.60
2022-12-27T06:32:44.870Z,4.60
2022-12-27T06:35:11.432Z,4.60
2022-12-27T06:37:38.396Z,4.60
2022-12-27T06:40:05.277Z,4.70
2022-12-27T06:42:31.866Z,4.70
2022-12-27T06:44:58.577Z,4.60
2022-12-27T06:47:25.063Z,4.60
2022-12-27T06:49:51.674Z,4.50
2022-12-27T06:52:18.295Z,4.50
2022-12-27T06:54:44.818Z,4.50
2022-12-27T06:57:11.330Z,4.40
2022-12-27T06:59:37.933Z,4.40
2022-12-27T07:02:04.582Z,4.30
2022-12-27T07:04:31.264Z,4.30
2022-12-27T07:06:57.751Z,4.30
2022-12-27T07:09:24.312Z,4.30
2022-12-27T07:11:50.779Z,4.30
2022-12-27T07:14:17.347Z,4.30
2022-12-27T07:16:43.847Z,4.30
2022-12-27T07:19:10.401Z,4.40
2022-12-27T07:21:37.243Z,4.30
2022-12-27T07:24:03.888Z,4.30
2022-12-27T07:26:30.755Z,4.20
2022-12-27T07:28:58.714Z,4.20
2022-12-27T07:31:26.651Z,4.20
2022-12-27T07:33:53.584Z,4.20
2022-12-27T07:36:21.645Z,4.20
2022-12-27T07:38:48.434Z,4.30
2022-12-27T07:41:15.905Z,4.40
2022-12-27T07:43:44.287Z,4.50
2022-12-27T07:46:15.170Z,4.60
2022-12-27T07:48:42.081Z,4.70
2022-12-27T07:51:08.986Z,4.70
2022-12-27T07:53:35.938Z,4.60
2022-12-27T07:56:09.761Z,4.60
2022-12-27T07:58:39.588Z,4.50
2022-12-27T08:01:06.511Z,4.50
2022-12-27T08:03:33.430Z,4.50
2022-12-27T08:05:59.980Z,4.50
2022-12-27T08:08:27.828Z,4.60
2022-12-27T08:10:54.401Z,4.60
2022-12-27T08:13:21.023Z,4.70
2022-12-27T08:15:47.519Z,4.70
2022-12-27T08:18:14.049Z,4.70
2022-12-27T08:20:40.581Z,4.70
2022-12-27T08:23:07.085Z,4.70
2022-12-27T08:25:33.647Z,4.80
2022-12-27T08:28:04.621Z,4.80
2022-12-27T08:30:31.450Z,5.10
2022-12-27T08:32:58.071Z,5.40
2022-12-27T08:35:51.703Z,5.50
2022-12-27T08:38:11.205Z,5.90
2022-12-27T08:40:41.865Z,6.30
2022-12-27T08:43:08.830Z,6.50
2022-12-27T08:45:35.851Z,6.70
2022-12-27T08:48:02.536Z,6.90
2022-12-27T08:50:29.207Z,7.10
2022-12-27T08:52:59.875Z,7.50
2022-12-27T08:55:26.881Z,7.70
2022-12-27T08:58:00.816Z,7.70
2022-12-27T09:00:28.535Z,7.50
2022-12-27T09:02:55.488Z,7.40
2022-12-27T09:05:25.230Z,7.70
2022-12-27T09:07:51.885Z,7.80
2022-12-27T09:10:18.793Z,7.70
2022-12-27T09:12:45.850Z,7.60
2022-12-27T09:15:12.723Z,8.00
2022-12-27T09:17:39.554Z,8.20
2022-12-27T09:20:06.476Z,8.50
2022-12-27T09:22:33.202Z,8.90
2022-12-27T09:24:59.778Z,9.10
2022-12-27T09:27:26.372Z,9.50
2022-12-27T09:29:52.986Z,9.50
2022-12-27T09:32:19.505Z,10.10
2022-12-27T09:34:46.080Z,10.00
2022-12-27T09:37:12.584Z,10.00
2022-12-27T09:39:39.203Z,9.80
2022-12-27T09:45:17.959Z,10.30
2022-12-27T09:47:57.283Z,10.50
2022-12-27T09:50:23.902Z,10.70
2022-12-27T09:53:07.388Z,11.20
2022-12-27T09:55:33.942Z,10.50
2022-12-27T09:58:12.468Z,9.70
2022-12-27T10:00:44.275Z,10.00
2022-12-27T10:03:12.960Z,9.90
2022-12-27T10:05:41.738Z,9.00
2022-12-27T10:08:08.259Z,8.40
2022-12-27T10:10:43.725Z,9.40
2022-12-27T10:13:16.721Z,10.30
2022-12-27T10:16:02.272Z,11.80
2022-12-27T10:18:42.732Z,12.30
2022-12-27T10:21:18.606Z,12.60
2022-12-27T10:23:47.128Z,12.70
2022-12-27T10:26:15.532Z,12.20
2022-12-27T10:28:49.607Z,12.30
2022-12-27T10:31:18.898Z,12.50
2022-12-27T10:33:46.964Z,12.00
2022-12-27T10:36:15.917Z,11.90
2022-12-27T10:38:42.788Z,11.80
2022-12-27T10:41:12.188Z,11.50
2022-12-27T10:43:41.043Z,11.20
2022-12-27T10:46:15.691Z,11.50
2022-12-27T10:49:19.560Z,11.80
2022-12-27T10:51:40.266Z,12.00
2022-12-27T10:54:13.974Z,11.50
2022-12-27T10:56:41.601Z,11.50
2022-12-27T11:01:38.846Z,11.40
2022-12-27T11:04:17.727Z,10.80
2022-12-27T11:06:47.696Z,10.50
2022-12-27T11:09:23.101Z,9.60
2022-12-27T11:11:49.842Z,10.00
2022-12-27T11:14:20.487Z,10.60
2022-12-27T11:16:48.592Z,10.80
2022-12-27T11:19:23.582Z,10.90
2022-12-27T11:21:51.054Z,11.60
2022-12-27T11:24:20.115Z,11.30
2022-12-27T11:26:54.251Z,10.80
2022-12-27T11:29:23.680Z,10.50
2022-12-27T11:31:51.227Z,10.20
2022-12-27T11:34:17.770Z,10.20
2022-12-27T11:36:47.171Z,10.90
2022-12-27T11:39:33.681Z,10.90
2022-12-27T11:42:01.032Z,11.20
2022-12-27T11:44:29.047Z,10.60
2022-12-27T11:47:03.378Z,10.50
2022-12-27T11:49:36.313Z,10.30
2022-12-27T11:52:02.880Z,10.20
2022-12-27T11:54:48.631Z,10.10
2022-12-27T11:57:33.989Z,10.00
2022-12-27T12:00:12.012Z,9.40
2022-12-27T12:02:47.835Z,9.50
2022-12-27T12:05:29.854Z,10.30
2022-12-27T12:08:01.413Z,10.20
2022-12-27T12:10:46.191Z,10.20
2022-12-27T12:13:18.651Z,10.20
2022-12-27T12:15:45.200Z,10.40
2022-12-27T12:18:18.179Z,10.30
2022-12-27T12:21:10.295Z,10.40
2022-12-27T12:23:55.488Z,10.00
2022-12-27T12:26:23.226Z,9.80
2022-12-27T12:28:58.606Z,10.00
2022-12-27T12:31:44.673Z,10.00
2022-12-27T12:34:13.711Z,9.80
2022-12-27T12:36:59.047Z,10.00
2022-12-27T12:39:37.932Z,9.90
2022-12-27T12:42:16.815Z,10.10
2022-12-27T12:44:56.820Z,10.20
2022-12-27T12:47:43.975Z,10.20
2022-12-27T12:50:28.969Z,10.30
2022-12-27T12:52:58.493Z,10.20
2022-12-27T12:55:38.648Z,10.50
2022-12-27T12:58:17.504Z,10.60
2022-12-27T13:01:02.324Z,10.90
2022-12-27T13:03:41.578Z,10.50
2022-12-27T13:06:08.174Z,10.20
2022-12-27T13:08:37.720Z,10.20
2022-12-27T13:11:08.388Z,10.20
2022-12-27T13:13:44.237Z,10.30
2022-12-27T13:16:16.970Z,10.40
2022-12-27T13:18:46.586Z,10.70
2022-12-27T13:21:13.127Z,10.50
2022-12-27T13:23:58.431Z,10.60
2022-12-27T13:26:44.022Z,10.50
2022-12-27T13:29:16.048Z,10.30
2022-12-27T13:31:57.599Z,10.20
2022-12-27T13:34:44.738Z,10.30
2022-12-27T13:37:34.552Z,10.10
2022-12-27T13:40:14.241Z,10.00
2022-12-27T13:42:40.986Z,9.70
2022-12-27T13:45:19.353Z,9.50
2022-12-27T13:48:01.265Z,9.20
2022-12-27T13:50:36.700Z,9.20
2022-12-27T13:53:05.897Z,9.50
2022-12-27T13:55:35.981Z,9.50
2022-12-27T13:58:05.406Z,9.60
2022-12-27T14:00:36.304Z,9.60
2022-12-27T14:03:21.755Z,9.80
2022-12-27T14:06:17.706Z,10.00
2022-12-27T14:09:02.785Z,10.10
2022-12-27T14:11:48.056Z,10.40
2022-12-27T14:14:16.361Z,10.40
2022-12-27T14:16:59.364Z,10.50
2022-12-27T14:19:44.931Z,10.50
2022-12-27T14:22:12.021Z,10.60
2022-12-27T14:24:40.100Z,10.70
2022-12-27T14:27:06.651Z,10.60
2022-12-27T14:32:44.284Z,10.60
2022-12-27T14:35:22.964Z,10.40
2022-12-27T14:38:07.923Z,10.10
2022-12-27T14:40:40.602Z,9.60
2022-12-27T14:43:34.780Z,9.20
2022-12-27T14:46:13.427Z,8.90
2022-12-27T14:48:52.206Z,8.80
2022-12-27T14:54:24.025Z,8.60
2022-12-27T14:57:09.448Z,8.40
2022-12-27T14:59:54.500Z,8.40
2022-12-27T15:02:24.058Z,8.40
2022-12-27T15:05:20.315Z,8.40
2022-12-27T15:07:56.533Z,8.30
2022-12-27T15:10:33.994Z,8.30
2022-12-27T15:13:13.193Z,8.20
2022-12-27T15:15:42.299Z,8.10
2022-12-27T15:18:14.774Z,8.00
2022-12-27T15:20:46.332Z,7.90
2022-12-27T15:23:15.617Z,7.80
2022-12-27T15:25:48.295Z,7.80
2022-12-27T15:28:30.166Z,7.70
2022-12-27T15:31:09.108Z,7.70
2022-12-27T15:33:50.907Z,7.70
2022-12-27T15:36:19.139Z,7.70
2022-12-27T15:38:52.960Z,7.60
2022-12-27T15:41:29.215Z,7.60
2022-12-27T15:43:59.044Z,7.60
2022-12-27T15:46:48.985Z,7.50
2022-12-27T15:49:21.436Z,7.50
2022-12-27T15:51:52.317Z,7.40
2022-12-27T15:54:21.747Z,7.40
2022-12-27T15:56:56.200Z,7.30
2022-12-27T15:59:32.540Z,7.20
2022-12-27T16:02:17.613Z,7.20
2022-12-27T16:04:49.023Z,7.20
2022-12-27T16:07:34.398Z,7.00
2022-12-27T16:10:20.892Z,7.00
2022-12-27T16:12:48.285Z,6.90
2022-12-27T16:15:33.450Z,6.80
2022-12-27T16:18:00.237Z,6.80
2022-12-27T16:20:27.138Z,6.80
2022-12-27T16:22:54.707Z,6.70
2022-12-27T16:25:31.371Z,6.60
2022-12-27T16:28:01.132Z,6.60
2022-12-27T16:30:42.694Z,6.60
2022-12-27T16:33:27.308Z,6.60
2022-12-27T16:36:12.458Z,6.50
2022-12-27T16:38:43.467Z,6.50
2022-12-27T16:41:13.441Z,6.50
2022-12-27T16:43:46.028Z,6.50
2022-12-27T16:46:18.938Z,6.50
2022-12-27T16:48:57.810Z,6.50
2022-12-27T16:51:27.332Z,6.40
2022-12-27T16:54:05.813Z,6.50
2022-12-27T16:56:33.388Z,6.50
2022-12-27T16:59:00.038Z,6.40
2022-12-27T17:01:35.827Z,6.40
2022-12-27T17:04:02.972Z,6.40
2022-12-27T17:06:32.487Z,6.40
2022-12-27T17:09:06.213Z,6.30
2022-12-27T17:11:34.536Z,6.30
2022-12-27T17:14:03.506Z,6.20
2022-12-27T17:16:35.884Z,6.20
2022-12-27T17:19:04.243Z,6.20
2022-12-27T17:21:32.742Z,6.10
2022-12-27T17:24:06.790Z,6.10
2022-12-27T17:26:33.297Z,6.10
2022-12-27T17:28:59.858Z,6.10
2022-12-27T17:31:34.197Z,6.10
2022-12-27T17:34:03.635Z,6.00
2022-12-27T17:36:35.646Z,6.00
2022-12-27T17:39:09.952Z,6.00
2022-12-27T17:41:58.290Z,6.00
2022-12-27T17:44:39.985Z,6.00
2022-12-27T17:47:25.284Z,5.90
2022-12-27T17:49:53.037Z,5.90
2022-12-27T17:52:42.836Z,5.90
2022-12-27T17:55:48.554Z,5.90
2022-12-27T17:58:16.130Z,5.90
2022-12-27T18:01:02.978Z,5.80
2022-12-27T18:03:35.742Z,5.80
2022-12-27T18:06:02.725Z,5.80
2022-12-27T18:08:30.268Z,5.70
2022-12-27T18:10:57.802Z,5.80
2022-12-27T18:13:25.328Z,5.70
2022-12-27T18:15:52.299Z,5.80
2022-12-27T18:18:22.568Z,5.80
2022-12-27T18:20:54.242Z,5.80
2022-12-27T18:23:20.772Z,5.80
2022-12-27T18:25:47.316Z,5.70
2022-12-27T18:28:34.181Z,5.70
2022-12-27T18:31:13.348Z,5.60
2022-12-27T18:33:42.625Z,5.60
2022-12-27T18:36:11.923Z,5.60
2022-12-27T18:38:40.628Z,5.60
2022-12-27T18:41:09.865Z,5.70
2022-12-27T18:43:37.245Z,5.70
2022-12-27T18:46:04.394Z,5.70
2022-12-27T18:48:34.272Z,5.60
2022-12-27T18:51:01.115Z,5.60
2022-12-27T18:53:32.161Z,5.60
2022-12-27T18:56:04.712Z,5.60
2022-12-27T18:58:31.330Z,5.60
2022-12-27T19:01:01.423Z,5.60
2022-12-27T19:03:28.850Z,5.60
2022-12-27T19:06:00.623Z,5.60
2022-12-27T19:08:47.529Z,5.50
2022-12-27T19:11:21.133Z,5.60
2022-12-27T19:13:49.148Z,5.60
2022-12-27T19:16:30.071Z,5.60
2022-12-27T19:18:58.595Z,5.60
2022-12-27T19:21:30.177Z,5.60
2022-12-27T19:23:56.743Z,5.60
2022-12-27T19:26:25.498Z,5.60
2022-12-27T19:29:01.050Z,5.60
2022-12-27T19:31:28.027Z,5.50
2022-12-27T19:33:55.767Z,5.50
2022-12-27T19:36:26.078Z,5.50
2022-12-27T19:38:53.572Z,5.50
2022-12-27T19:41:20.175Z,5.50
2022-12-27T19:43:47.108Z,5.50
2022-12-27T19:46:14.623Z,5.40
2022-12-27T19:48:41.309Z,5.40
2022-12-27T19:51:10.240Z,5.30
2022-12-27T19:53:38.436Z,5.30
2022-12-27T19:56:07.172Z,5.30
2022-12-27T19:58:33.686Z,5.30
2022-12-27T20:01:00.414Z,5.40
2022-12-27T20:03:27.405Z,5.30
2022-12-27T20:06:14.984Z,5.30
2022-12-27T20:08:48.360Z,5.30
2022-12-27T20:11:16.693Z,5.20
2022-12-27T20:13:43.293Z,5.20
2022-12-27T20:16:13.971Z,5.20
2022-12-27T20:18:41.218Z,5.10
2022-12-27T20:21:11.392Z,5.10
2022-12-27T20:23:37.921Z,5.10
2022-12-27T20:26:04.540Z,5.10
2022-12-27T20:28:31.151Z,5.10
2022-12-27T20:30:57.724Z,5.20
2022-12-27T20:33:24.615Z,5.10
2022-12-27T20:35:54.696Z,5.20
2022-12-27T20:38:21.229Z,5.20
2022-12-27T20:40:47.869Z,5.20
2022-12-27T20:43:14.470Z,5.20
2022-12-27T20:45:41.118Z,5.30
2022-12-27T20:48:09.234Z,5.20
2022-12-27T20:50:36.404Z,5.30
2022-12-27T20:53:02.918Z,5.30
2022-12-27T20:55:29.725Z,5.40
2022-12-27T20:57:56.336Z,5.30
2022-12-27T21:00:22.872Z,5.40
2022-12-27T21:02:49.483Z,5.50
2022-12-27T21:05:16.519Z,5.60
2022-12-27T21:07:43.130Z,5.70
2022-12-27T21:10:10.734Z,5.70
2022-12-27T21:12:38.073Z,5.90
2022-12-27T21:15:08.081Z,6.00
2022-12-27T21:17:34.739Z,6.00
2022-12-27T21:20:01.375Z,6.00
2022-12-27T21:22:27.974Z,6.00
2022-12-27T21:24:54.527Z,6.20
2022-12-27T21:27:21.128Z,6.20
2022-12-27T21:29:47.654Z,6.20
2022-12-27T21:32:14.258Z,6.20
2022-12-27T21:34:41.209Z,6.10
2022-12-27T21:37:13.000Z,6.10
2022-12-27T21:39:39.791Z,6.10
2022-12-27T21:42:06.443Z,6.10
2022-12-27T21:44:35.292Z,6.10
2022-12-27T21:47:01.928Z,6.10
2022-12-27T21:49:28.491Z,6.10
2022-12-27T21:51:55.682Z,6.10
2022-12-27T21:54:22.286Z,6.00
2022-12-27T21:56:48.912Z,6.10
2022-12-27T21:59:15.493Z,6.10
2022-12-27T22:01:51.914Z,6.10
2022-12-27T22:04:22.246Z,6.10
2022-12-27T22:06:48.989Z,6.20
2022-12-27T22:09:18.892Z,6.20
2022-12-27T22:11:45.464Z,6.30
2022-12-27T22:14:12.057Z,6.30
2022-12-27T22:16:39.496Z,6.30
2022-12-27T22:19:07.069Z,6.30
2022-12-27T22:21:35.236Z,6.30
2022-12-27T22:24:02.238Z,6.30
2022-12-27T22:26:30.033Z,6.30
2022-12-27T22:28:56.949Z,6.30
2022-12-27T22:31:24.973Z,6.30
2022-12-27T22:33:51.810Z,6.30
2022-12-27T22:36:19.632Z,6.30
2022-12-27T22:38:49.734Z,6.30
2022-12-27T22:41:21.258Z,6.30
2022-12-27T22:43:49.349Z,6.30
2022-12-27T22:46:17.254Z,6.30
2022-12-27T22:48:43.857Z,6.30
2022-12-27T22:51:13.536Z,6.30
2022-12-27T22:53:40.460Z,6.30
2022-12-27T22:56:12.781Z,6.30
2022-12-27T22:58:39.353Z,6.30
2022-12-27T23:03:35.596Z,6.40
2022-12-27T23:06:02.169Z,6.50
2022-12-27T23:08:28.738Z,6.40
2022-12-27T23:11:00.931Z,6.40
2022-12-27T23:13:27.546Z,6.40
2022-12-27T23:15:58.067Z,6.50
2022-12-27T23:18:24.949Z,6.50
2022-12-27T23:21:21.312Z,6.50
2022-12-27T23:23:38.151Z,6.50
2022-12-27T23:26:06.620Z,6.50
2022-12-27T23:28:40.613Z,6.50
2022-12-27T23:31:08.451Z,6.50
2022-12-27T23:33:35.719Z,6.50
2022-12-27T23:36:02.358Z,6.50
2022-12-27T23:38:29.242Z,6.60
2022-12-27T23:40:56.573Z,6.50
2022-12-27T23:43:51.184Z,6.60
2022-12-27T23:46:17.007Z,6.60
2022-12-27T23:48:44.225Z,6.70
2022-12-27T23:51:11.170Z,6.70
2022-12-27T23:53:38.139Z,6.70
2022-12-27T23:56:07.748Z,6.70
2022-12-27T23:58:35.661Z,6.70
